Date,TemperatureHighF,TemperatureAvgF,TemperatureLowF,DewpointHighF,DewpointAvgF,DewpointLowF,HumidityHigh,HumidityAvg,HumidityLow,PressureMaxIn,PressureMinIn,WindSpeedMaxMPH,WindSpeedAvgMPH,GustSpeedMaxMPH,PrecipitationSumIn
2013-1-1,82.9,66.5,53.6,72.9,62.6,53.6,100,89,55,30.24,30.05,3,0,11,0.18
2013-1-2,82.4,66.0,55.2,77.4,64.9,55.2,100,97,70,30.11,30.00,4,0,10,0.00
2013-1-3,84.2,69.4,58.6,79.8,67.5,58.7,100,95,59,30.15,30.03,4,1,11,0.01
2013-1-4,70.7,67.4,63.0,70.7,67.5,63.0,100,100,100,30.27,30.12,2,1,8,0.14
2013-1-5,79.2,68.3,61.5,76.7,68.0,61.5,100,99,89,30.30,30.18,2,0,8,0.00
2013-1-6,86.2,72.0,65.1,82.5,71.2,65.1,100,97,74,30.21,30.06,3,0,8,0.00
2013-1-7,77.9,69.8,64.6,78.0,69.8,64.6,100,100,100,30.20,30.10,2,0,8,0.00
2013-1-8,86.0,72.4,63.0,82.3,71.4,63.0,100,97,72,30.23,30.11,2,0,8,0.00
2013-1-9,88.0,76.5,69.6,82.4,73.9,69.7,100,92,61,30.28,30.18,3,1,10,0.01
2013-1-10,85.6,74.9,64.9,78.7,70.2,65.0,100,87,57,30.31,30.19,3,1,11,0.00
2013-1-11,87.8,71.0,60.4,79.5,68.6,60.5,100,94,55,30.28,30.14,3,0,11,0.00
2013-1-12,85.1,73.0,64.2,80.0,71.0,64.2,100,94,70,30.20,30.08,2,0,8,0.00
2013-1-13,86.0,71.9,63.0,79.0,70.0,63.0,100,94,63,30.15,30.07,2,0,8,0.00
2013-1-14,84.0,68.9,59.4,77.5,66.1,59.4,100,92,62,30.20,30.12,2,0,7,0.00
2013-1-15,86.2,69.6,56.3,78.3,67.3,56.3,100,93,61,30.17,30.06,2,0,6,0.00
2013-1-16,85.5,70.3,57.7,78.3,66.7,57.8,100,90,53,30.13,30.02,3,0,10,0.00
2013-1-17,82.6,66.9,58.8,80.0,65.7,56.0,100,96,76,30.16,30.00,5,1,17,0.00
2013-1-18,69.3,57.5,45.0,63.3,52.7,41.3,100,85,63,30.33,30.15,5,2,15,0.00
2013-1-19,77.9,66.7,59.0,74.5,66.4,59.0,100,99,86,30.26,30.12,2,1,9,0.00
2013-1-20,80.1,70.1,64.4,78.0,69.4,64.4,100,98,82,30.19,30.03,2,0,8,0.00
2013-1-21,80.1,67.9,61.0,78.0,67.7,61.0,100,99,81,30.11,30.01,4,1,13,0.00
2013-1-22,71.6,62.6,56.7,61.7,56.5,46.4,100,82,54,30.29,30.07,5,1,14,0.00
2013-1-23,76.5,59.8,49.1,51.4,47.3,40.4,100,67,36,30.37,30.26,3,1,10,0.00
2013-1-24,77.4,57.5,43.9,57.9,47.3,40.6,100,76,36,30.35,30.24,3,0,10,0.00
2013-1-25,79.2,59.1,43.7,63.9,51.5,43.7,100,81,36,30.33,30.20,2,0,6,0.00
2013-1-26,80.6,59.8,43.9,62.1,50.7,43.9,100,78,36,30.30,30.18,2,0,9,0.00
2013-1-27,81.5,64.9,47.7,69.3,57.2,47.7,100,81,38,30.31,30.22,2,1,8,0.00
2013-1-28,85.3,70.8,59.2,75.4,65.5,59.2,100,85,56,30.34,30.21,3,1,9,0.00
2013-1-29,84.6,71.0,58.1,79.4,68.2,58.1,100,92,64,30.26,30.11,2,0,9,0.00
2013-1-30,86.4,72.8,64.4,78.2,69.8,64.4,100,92,57,30.12,29.98,4,1,15,0.00
2013-1-31,72.5,62.7,47.7,69.5,56.1,37.7,100,82,36,30.25,29.95,6,1,16,0.11
2013-2-1,72.3,52.0,40.6,45.7,40.8,29.2,100,71,36,30.35,30.24,4,1,12,0.00
2013-2-2,78.4,57.8,39.2,54.8,47.1,39.2,100,75,36,30.31,30.15,2,0,8,0.00
2013-2-3,75.6,58.2,43.5,56.9,47.4,35.6,100,74,36,30.24,30.11,4,1,12,0.05
2013-2-4,76.1,56.6,39.7,59.2,46.1,36.9,100,75,36,30.19,30.05,3,0,8,0.02
2013-2-5,81.9,61.9,43.3,61.4,52.8,43.3,100,79,36,30.11,30.02,3,0,9,0.00
2013-2-6,84.7,68.7,52.5,72.2,63.1,52.5,100,85,45,30.14,30.03,2,0,9,0.00
2013-2-7,84.9,71.0,58.5,75.3,66.7,58.5,100,88,53,30.10,29.94,5,1,14,0.00
2013-2-8,87.4,73.4,61.2,79.7,66.6,53.6,100,84,36,30.09,29.91,6,2,19,0.00
2013-2-9,81.7,67.0,54.9,72.0,63.4,54.9,100,90,57,30.19,30.08,2,1,8,0.00
2013-2-10,84.2,69.5,58.3,73.8,65.6,58.3,100,89,53,30.26,30.15,4,1,10,0.00
2013-2-11,85.3,70.4,59.2,77.3,67.1,59.2,100,91,57,30.23,30.09,3,1,10,0.00
2013-2-12,85.6,71.1,58.5,80.7,69.0,58.5,100,94,69,30.14,29.98,5,1,14,0.00
2013-2-13,84.9,75.6,66.6,82.7,74.6,66.6,100,97,81,30.01,29.92,6,2,18,0.00
2013-2-14,73.6,63.3,59.5,73.6,63.3,59.6,100,100,99,30.06,29.92,6,1,18,0.78
2013-2-15,67.5,62.5,59.5,67.5,62.5,59.6,100,100,100,30.08,29.98,2,0,7,0.02
2013-2-16,70.9,60.5,51.6,63.8,57.1,51.6,100,90,56,30.14,29.95,4,1,17,0.00
2013-2-17,60.1,48.5,35.6,52.2,31.9,20.1,100,57,36,30.36,30.13,5,2,16,0.00
2013-2-18,72.1,51.8,32.4,52.5,41.5,32.4,100,74,36,30.36,30.23,3,1,11,0.00
2013-2-19,80.4,62.6,47.3,70.2,59.2,47.3,100,90,61,30.24,30.11,4,1,11,0.00
2013-2-20,86.2,67.1,53.4,75.0,60.5,53.4,100,84,36,30.14,30.01,2,0,8,0.00
2013-2-21,85.8,70.2,59.5,79.1,67.3,59.6,100,92,60,30.12,30.01,3,0,8,0.00
2013-2-22,88.9,72.1,59.2,81.5,69.5,59.2,100,93,63,30.11,30.00,4,1,11,0.00
2013-2-23,87.4,75.1,65.1,83.3,74.0,65.1,100,97,74,30.05,29.93,7,1,15,0.00
2013-2-24,88.0,75.9,67.5,82.3,73.2,67.5,100,93,61,30.01,29.92,4,1,11,0.00
2013-2-25,86.9,73.9,63.1,83.4,72.1,63.2,100,95,72,29.95,29.81,5,1,14,0.00
2013-2-26,86.9,75.3,65.3,82.5,74.7,65.3,100,98,78,29.95,29.77,7,2,24,0.04
2013-2-27,77.9,67.6,60.8,74.8,66.8,60.8,100,97,76,30.03,29.91,2,0,8,0.00
2013-2-28,77.4,64.9,58.8,65.8,61.1,57.7,100,89,51,30.08,29.96,4,1,12,0.00
2013-3-1,65.5,60.9,56.5,62.8,54.1,45.4,100,79,55,30.08,29.98,5,1,13,0.00
2013-3-2,61.3,55.4,48.2,50.9,45.3,36.6,100,70,42,30.12,30.04,4,1,12,0.00
2013-3-3,62.4,51.1,41.9,50.7,45.2,38.4,100,83,45,30.22,30.03,5,1,21,0.01
2013-3-4,72.1,51.9,34.9,47.6,41.1,33.7,100,73,36,30.30,30.17,4,1,11,0.00
2013-3-5,78.1,57.3,38.1,62.5,50.1,38.1,100,82,36,30.23,30.13,4,1,11,0.00
2013-3-6,73.0,61.4,50.5,66.9,57.4,35.6,100,90,36,30.17,30.04,6,1,10,0.01
2013-3-7,71.2,58.1,43.7,52.4,42.6,31.3,100,61,36,30.25,30.14,4,1,11,0.00
2013-3-8,80.2,58.7,40.3,58.8,48.4,40.3,100,76,36,30.25,30.13,3,1,9,0.00
2013-3-9,80.8,62.3,44.1,62.6,50.9,44.1,100,73,36,30.23,30.13,2,0,8,0.00
2013-3-10,82.4,67.2,53.8,66.7,56.2,49.3,100,73,36,30.19,30.05,3,1,13,0.00
2013-3-11,82.2,69.1,57.4,72.8,63.4,57.4,100,85,48,30.12,29.93,3,1,10,0.00
2013-3-12,77.4,67.5,58.3,77.4,67.6,58.3,100,100,100,30.07,29.91,6,1,20,0.00
2013-3-13,79.2,63.4,52.0,58.1,49.2,36.7,100,67,36,30.20,30.05,5,2,16,0.00
2013-3-14,63.1,57.5,44.4,50.5,39.7,29.7,100,57,36,30.28,30.17,6,3,17,0.00
2013-3-15,63.1,63.1,63.1,35.8,35.8,35.8,36,36,36,30.26,30.26,4,4,15,0.00
2013-3-16,78.4,63.3,50.2,60.6,39.6,35.8,100,44,36,30.26,29.91,4,3,15,0.00
2013-3-17,82.4,63.4,47.7,67.2,57.4,47.7,100,84,43,29.98,29.83,3,0,9,0.00
2013-3-18,80.1,68.4,57.9,78.3,68.3,57.9,100,100,85,29.89,29.76,3,0,10,0.11
2013-3-19,86.4,72.1,64.6,79.2,70.3,64.6,100,95,62,29.85,29.67,4,1,14,0.00
2013-3-20,82.8,67.1,59.5,75.4,64.2,59.6,100,92,52,29.86,29.65,4,1,13,0.04
2013-3-21,77.0,64.8,50.5,63.9,53.4,39.0,100,73,36,29.81,29.69,4,1,15,0.01
2013-3-22,82.4,62.2,44.8,78.1,60.0,44.8,100,93,74,29.83,29.72,4,0,11,0.00
2013-3-23,87.3,75.6,67.5,83.7,72.9,67.5,100,92,65,29.81,29.65,6,2,17,0.31
2013-3-24,83.7,75.5,66.6,83.7,75.5,66.6,100,100,100,29.69,29.52,6,2,20,0.07
2013-3-25,78.3,69.4,55.4,76.3,56.2,33.4,100,69,36,29.89,29.59,5,2,17,0.00
2013-3-26,66.9,55.7,45.1,52.3,40.8,29.7,100,62,36,30.09,29.88,7,2,17,0.00
2013-3-27,68.9,52.6,39.0,46.4,39.7,29.7,100,67,36,30.15,30.03,4,1,12,0.00
2013-3-28,77.2,56.3,41.7,60.6,43.3,35.6,100,69,36,30.11,29.77,4,1,10,9.53
2013-3-29,80.1,64.5,43.2,59.2,47.8,41.7,100,63,36,29.94,29.79,2,0,8,0.00
2013-3-30,82.2,75.4,57.0,66.7,53.2,49.2,100,50,36,29.88,29.73,3,0,9,0.00
2013-3-31,83.5,68.0,52.3,74.7,60.0,52.3,100,81,38,29.80,29.63,13,1,13,0.00
2013-4-1,84.9,71.6,60.1,78.6,67.3,60.1,100,88,58,29.66,29.57,5,1,16,0.00
2013-4-2,85.8,73.1,-11.6,78.5,69.3,-11.4,100,89,64,29.71,29.60,4,1,104,0.00
2013-4-3,95.9,75.2,62.6,79.2,68.4,61.3,100,84,36,29.68,29.54,27,1,27,0.00
2013-4-4,81.7,70.5,65.3,81.8,70.6,65.3,100,100,100,29.64,29.47,4,0,11,0.18
2013-4-5,77.2,69.3,61.5,77.1,68.6,61.5,100,98,77,29.62,29.43,5,2,17,0.21
2013-4-6,82.4,67.8,58.5,67.3,62.7,44.7,100,86,36,29.70,29.58,3,1,11,0.00
2013-4-7,86.0,70.2,57.0,72.9,65.1,57.0,100,86,47,29.75,29.64,2,0,7,0.00
2013-4-8,88.3,74.0,60.4,75.8,63.3,55.0,100,75,36,29.73,29.63,2,0,8,0.00
2013-4-9,88.7,73.5,61.2,78.9,68.0,60.2,100,86,40,29.75,29.65,2,0,8,0.00
2013-4-10,91.8,75.6,64.0,81.3,72.6,46.6,100,92,36,29.71,29.55,4,0,24,0.28
2013-4-11,119.3,78.5,70.2,99.9,76.8,70.2,100,96,65,29.61,29.46,3,1,15,0.00
2013-4-12,75.6,75.4,74.7,75.6,75.4,74.7,100,100,100,29.51,29.48,0,0,3,0.00
2013-4-13,90.3,80.4,57.7,80.4,75.4,57.7,100,87,61,30.14,29.51,4,0,8,9.14
2013-4-14,90.7,76.1,68.4,85.7,75.1,68.4,100,97,68,29.93,29.80,4,0,14,0.00
2013-4-15,94.3,79.2,65.1,84.8,74.1,65.1,100,87,46,30.03,29.88,4,1,12,0.02
2013-4-16,94.3,79.0,68.7,85.2,75.7,68.8,100,91,49,30.09,29.98,4,1,8,0.00
2013-4-17,88.7,77.8,67.8,79.6,71.8,67.5,100,84,53,30.09,29.96,2,0,5,0.00
2013-4-18,93.7,78.6,69.4,83.2,74.9,69.5,100,90,48,30.02,29.89,2,0,8,0.02
2013-4-19,91.8,77.9,67.5,84.7,75.0,67.5,100,92,56,29.99,29.89,4,0,14,0.00
2013-4-20,87.6,76.8,67.1,85.8,75.5,67.1,100,96,75,30.09,29.92,5,1,14,0.05
2013-4-21,90.0,74.1,63.5,82.7,71.7,63.5,100,94,58,30.08,29.93,3,0,9,0.17
2013-4-22,84.7,74.1,67.6,83.7,73.7,67.7,100,99,84,30.04,29.90,2,0,8,0.09
2013-4-23,88.3,75.2,66.4,80.5,70.5,66.4,100,87,49,30.06,29.95,2,1,8,0.00
2013-4-24,90.0,74.9,61.0,77.0,67.8,58.8,100,83,36,30.10,30.00,2,0,8,0.00
2013-4-25,89.4,76.8,62.8,78.4,66.0,56.6,100,74,36,30.17,30.04,4,0,9,0.00
2013-4-26,88.0,74.5,59.7,76.9,67.3,59.7,100,81,50,30.19,30.09,2,0,6,0.00
2013-4-27,88.3,75.3,62.8,77.4,67.4,61.3,100,80,43,30.17,30.02,3,1,9,0.00
2013-4-28,89.4,76.2,63.3,76.2,67.3,62.4,100,77,42,30.07,29.92,2,1,10,0.00
2013-4-29,90.3,73.6,63.0,79.6,70.7,63.0,100,92,54,29.99,29.88,2,0,11,0.06
2013-4-30,88.9,73.5,66.2,86.1,72.6,66.2,100,97,70,29.95,29.87,2,0,8,0.05
2013-5-1,81.0,71.0,67.6,81.0,71.0,67.7,100,100,100,29.98,29.81,5,0,17,0.59
2013-5-2,74.5,69.1,65.7,74.5,69.2,65.7,100,100,100,29.92,29.77,1,0,14,0.12
2013-5-3,88.9,74.1,62.4,81.8,70.8,62.4,100,91,55,29.81,29.65,4,1,11,0.00
2013-5-4,83.7,75.0,66.6,80.0,73.0,66.6,100,94,74,29.78,29.65,6,2,20,0.00
2013-5-5,81.9,73.0,64.2,70.9,61.1,47.2,100,72,36,29.93,29.75,5,1,17,0.00
2013-5-6,81.1,68.5,55.8,76.2,64.3,55.8,100,88,52,29.98,29.89,4,1,11,0.00
2013-5-7,81.1,68.5,54.7,72.0,62.3,54.7,100,83,53,30.03,29.95,5,1,12,0.00
2013-5-8,84.6,70.9,58.1,75.0,64.5,54.6,100,85,36,30.09,30.02,3,1,5,0.00
2013-5-9,76.1,72.4,55.0,73.0,70.2,55.0,100,93,78,30.12,30.02,2,1,4,0.00
2013-5-10,90.5,76.6,62.6,83.4,72.2,62.6,100,88,62,30.09,29.95,2,0,6,0.00
2013-5-11,91.8,73.4,68.0,84.6,72.0,68.0,100,96,52,30.03,29.95,4,0,11,0.00
2013-5-12,89.2,78.1,72.1,85.6,76.7,72.1,100,96,73,30.01,29.90,6,1,11,0.00
2013-5-13,87.6,77.3,68.9,80.3,70.8,54.4,100,82,55,30.09,29.96,4,1,11,0.00
2013-5-14,86.2,73.6,60.3,65.9,58.7,54.2,100,65,36,30.15,30.05,3,1,8,0.00
2013-5-15,87.1,73.4,56.8,73.8,62.2,55.5,100,73,36,30.15,30.03,2,0,5,0.00
2013-5-16,89.4,75.8,61.0,75.1,63.7,55.7,100,72,36,30.08,29.95,2,0,6,0.00
2013-5-17,92.5,78.1,44.1,79.0,67.2,18.8,100,75,36,30.05,29.97,2,0,5,0.00
2013-5-18,94.3,80.5,68.4,82.7,70.6,62.2,100,77,36,30.07,29.95,3,0,8,0.00
2013-5-19,93.9,77.2,68.2,85.3,73.9,68.2,100,91,47,30.06,29.93,3,0,7,0.19
2013-5-20,88.2,75.8,68.7,86.7,75.2,68.8,100,98,77,30.03,29.93,6,0,11,0.01
2013-5-21,69.1,68.7,68.7,69.1,68.8,68.8,100,100,100,29.98,29.84,0,0,0,0.00
2013-5-22,68.7,68.7,68.7,68.8,68.8,68.8,100,100,100,29.92,29.83,0,0,0,0.00
2013-5-23,91.2,78.8,66.7,83.6,74.3,66.8,100,88,56,29.98,29.88,4,1,8,0.57
2013-5-24,93.7,74.9,71.6,81.1,73.5,68.5,100,96,44,30.04,29.93,5,0,24,0.00
2013-5-25,91.2,78.5,67.1,84.3,71.7,66.1,100,83,46,30.12,30.00,2,1,101,0.00
2013-5-26,90.1,76.9,64.2,76.2,68.1,58.4,100,78,36,30.15,30.04,2,1,7,0.00
2013-5-27,90.0,77.5,64.9,79.6,72.3,64.3,100,86,46,30.13,29.99,2,1,7,0.00
2013-5-28,87.6,78.0,70.5,84.4,77.0,70.6,100,97,74,30.08,29.97,3,1,11,0.00
2013-5-29,86.5,77.1,71.1,83.0,76.0,71.1,100,96,78,30.05,29.96,4,1,11,0.06
2013-5-30,86.7,78.1,70.7,85.6,78.0,70.7,100,99,89,30.02,29.93,4,1,8,0.01
2013-5-31,87.8,79.2,72.1,86.7,78.8,72.2,100,99,85,30.01,29.94,2,1,10,0.01
2013-6-1,93.2,77.7,72.3,87.0,77.2,72.4,100,98,70,29.99,29.91,2,0,6,0.22
2013-6-2,90.0,79.6,71.6,88.0,78.8,71.6,100,97,74,29.96,29.86,4,0,13,0.00
2013-6-3,86.5,77.6,73.0,86.6,77.6,73.1,100,100,100,29.98,29.88,3,0,11,0.19
2013-6-4,84.9,76.7,72.0,85.0,76.8,72.0,100,100,100,30.00,29.91,1,0,7,0.05
2013-6-5,79.9,77.2,75.2,80.0,77.3,75.3,100,100,100,29.97,29.82,2,0,9,0.07
2013-6-6,81.9,76.0,71.6,81.9,76.1,71.6,100,100,100,29.84,29.70,4,1,14,0.38
2013-6-7,86.4,79.2,74.3,86.5,78.9,74.4,100,99,87,29.95,29.77,3,0,12,0.00
2013-6-8,91.2,80.1,73.9,89.1,79.9,74.0,100,99,80,30.06,29.92,3,0,14,0.00
2013-6-9,95.0,82.6,73.9,87.9,79.2,74.0,100,91,54,30.06,29.96,2,0,8,0.00
2013-6-10,93.7,80.5,73.9,89.0,79.4,74.0,100,97,63,30.04,29.95,2,0,8,0.08
2013-6-11,95.9,81.1,73.2,89.2,78.5,73.3,100,93,59,30.04,29.93,3,0,10,0.02
2013-6-12,96.3,78.8,67.8,88.9,76.8,67.9,100,95,54,30.04,29.96,3,0,8,0.00
2013-6-13,94.3,78.0,69.1,85.7,75.5,69.1,100,93,57,30.02,29.88,3,0,12,0.09
2013-6-14,91.2,81.0,72.0,86.5,77.6,72.0,100,90,64,29.93,29.84,3,1,11,0.01
2013-6-15,94.8,81.9,71.4,86.4,78.8,71.5,100,91,55,30.00,29.89,2,0,7,0.00
2013-6-16,95.4,83.5,74.7,89.4,80.8,74.7,100,93,60,30.06,29.97,2,0,7,0.21
2013-6-17,96.1,83.4,74.1,88.6,79.2,71.9,100,89,49,30.03,29.93,2,0,8,0.00
2013-6-18,95.5,83.9,73.8,88.8,79.4,70.0,100,88,51,30.03,29.91,4,0,11,0.17
2013-6-19,97.5,79.9,72.9,89.7,78.1,72.9,100,95,55,30.02,29.92,3,0,7,0.07
2013-6-20,91.0,77.5,71.4,89.2,77.3,71.5,100,99,84,30.05,29.99,4,0,11,0.01
2013-6-21,91.6,79.3,70.9,88.3,77.8,70.9,100,95,73,30.07,29.99,4,0,14,0.01
2013-6-22,95.2,82.7,70.9,86.5,75.9,66.3,100,83,40,30.07,29.98,2,0,7,0.33
2013-6-23,93.9,79.8,73.6,88.1,78.5,73.6,100,96,63,30.09,30.01,2,0,7,0.18
2013-6-24,94.1,82.0,72.7,87.4,78.6,72.7,100,90,60,30.12,30.02,2,0,10,0.00
2013-6-25,95.4,81.3,71.6,87.4,77.2,70.7,100,90,46,30.10,29.96,2,0,9,0.00
2013-6-26,92.8,77.5,72.7,87.7,77.0,72.7,100,98,66,30.05,29.97,2,0,9,0.19
2013-6-27,94.3,78.6,70.5,89.3,76.8,70.6,100,95,63,30.01,29.91,3,0,10,0.51
2013-6-28,92.3,80.8,71.1,88.6,79.0,71.1,100,95,67,29.95,29.82,3,0,11,0.01
2013-6-29,92.8,82.5,73.6,88.3,79.3,73.6,100,91,58,29.88,29.78,3,1,12,0.00
2013-6-30,91.2,80.5,73.4,89.0,79.7,73.5,100,97,81,29.88,29.79,5,1,16,0.37
2013-7-1,89.1,75.7,71.2,88.6,75.7,71.3,100,100,86,29.98,29.86,6,0,24,1.00
2013-7-2,88.2,76.6,72.7,88.3,76.7,72.7,100,100,100,30.06,29.93,2,0,7,0.20
2013-7-3,90.7,77.6,72.7,89.4,77.4,72.7,100,99,81,30.09,30.00,4,0,17,0.21
2013-7-4,90.0,78.9,71.8,88.6,78.5,71.8,100,99,84,30.11,30.00,2,0,8,0.04
2013-7-5,89.1,79.2,73.2,88.3,79.1,73.3,100,100,82,30.09,30.00,2,0,9,0.06
2013-7-6,93.2,82.5,74.5,88.8,79.4,74.5,100,91,60,30.07,29.96,2,0,10,0.00
2013-7-7,91.6,78.7,75.0,87.1,78.3,75.0,100,99,75,30.07,29.97,2,0,5,0.25
2013-7-8,92.3,80.8,73.0,86.5,78.2,73.1,100,93,59,30.11,30.02,2,0,8,0.02
2013-7-9,89.2,79.1,71.8,87.0,78.5,71.8,100,98,76,30.11,30.01,6,0,17,0.02
2013-7-10,87.4,76.8,71.8,85.5,76.4,71.8,100,99,78,30.05,29.94,2,0,4,0.14
2013-7-11,88.5,78.8,72.1,88.3,78.5,72.2,100,99,85,30.00,29.89,2,0,11,0.06
2013-7-12,90.1,78.9,71.8,88.6,78.4,71.8,100,98,79,29.93,29.85,2,0,9,0.60
2013-7-13,89.4,75.9,71.6,88.3,75.9,71.6,100,100,80,29.96,29.87,4,0,12,0.21
2013-7-14,81.9,75.5,72.5,81.9,75.6,72.5,100,100,100,30.05,29.93,3,0,10,0.06
2013-7-15,90.9,77.0,71.1,86.8,76.8,71.1,100,99,77,30.06,29.96,4,0,11,0.41
2013-7-16,86.4,76.7,72.0,85.9,76.7,72.0,100,100,87,30.10,30.00,3,0,9,0.09
2013-7-17,87.4,78.7,73.4,86.5,78.3,73.5,100,99,74,30.10,29.99,2,0,11,0.00
2013-7-18,83.8,74.8,70.9,83.9,74.8,70.9,100,100,100,30.08,30.01,2,0,11,0.33
2013-7-19,93.0,78.2,70.5,89.2,76.9,70.6,100,96,63,30.09,29.99,2,0,9,0.35
2013-7-20,93.4,78.9,71.8,90.8,78.2,71.8,100,98,74,30.07,29.98,2,0,8,0.52
2013-7-21,92.7,80.4,73.0,91.2,79.9,73.1,100,98,76,30.10,29.99,3,0,7,0.02
2013-7-22,94.1,83.1,73.8,87.5,80.2,73.8,100,92,63,30.11,30.02,2,0,10,0.00
2013-7-23,93.0,83.1,75.2,89.2,80.1,75.3,100,92,62,30.07,29.94,3,0,8,0.00
2013-7-24,90.5,81.7,73.6,85.9,78.1,70.0,100,90,52,29.99,29.89,3,1,11,0.00
2013-7-25,89.8,82.3,74.5,88.5,81.4,74.5,100,97,82,29.99,29.88,3,1,11,0.00
2013-7-26,92.7,80.9,72.1,90.4,80.7,72.2,100,99,79,30.00,29.91,4,0,13,0.81
2013-7-27,94.6,81.1,73.9,88.5,78.9,74.0,100,94,61,29.97,29.88,3,0,11,0.27
2013-7-28,94.3,81.6,73.8,88.5,79.1,73.8,100,93,55,30.03,29.91,2,0,6,0.11
2013-7-29,96.3,79.8,72.3,89.7,77.2,72.4,100,93,51,30.11,29.99,2,0,9,0.60
2013-7-30,94.5,80.4,73.9,90.5,79.8,74.0,100,98,70,30.12,30.03,2,0,11,0.01
2013-7-31,100.4,80.4,74.7,97.1,79.2,74.7,100,96,64,30.09,29.96,2,0,8,0.33
2013-8-1,95.7,79.7,72.7,88.7,76.8,72.7,100,93,50,30.02,29.88,2,0,8,0.21
2013-8-2,92.5,80.6,72.9,87.4,78.7,72.9,100,94,58,30.03,29.89,3,0,10,0.38
2013-8-3,91.6,79.0,74.5,91.1,78.9,74.5,100,100,84,30.07,29.98,2,0,8,0.32
2013-8-4,93.4,83.3,76.5,89.9,81.4,76.5,100,95,70,30.07,29.96,3,0,11,0.00
2013-8-5,93.7,83.3,76.5,90.9,81.9,76.5,100,96,65,30.01,29.89,4,0,11,0.01
2013-8-6,95.2,81.6,75.4,89.6,80.1,57.7,100,96,36,29.95,29.86,2,0,9,0.06
2013-8-7,95.5,80.7,74.7,91.0,79.7,74.7,100,97,63,29.93,29.85,2,0,8,0.13
2013-8-8,94.5,81.2,75.0,87.9,79.6,75.1,100,96,61,30.03,29.88,2,0,8,0.11
2013-8-9,94.1,78.5,73.0,88.8,77.0,73.1,100,96,57,30.03,29.91,3,0,9,0.79
2013-8-10,95.4,83.0,73.2,89.7,78.5,73.1,100,88,49,30.07,29.98,1,0,7,0.00
2013-8-11,96.1,84.8,75.4,89.4,80.2,72.6,100,88,48,30.10,29.99,1,0,8,0.00
2013-8-12,93.4,83.2,73.4,87.7,77.5,68.6,100,86,45,30.08,29.96,2,0,8,0.00
2013-8-13,97.0,81.8,73.2,89.2,79.0,73.3,100,93,50,30.01,29.89,3,0,11,0.35
2013-8-14,95.5,81.8,73.6,89.2,78.3,73.0,100,91,50,29.98,29.87,2,0,8,0.02
2013-8-15,88.5,80.5,75.6,88.3,80.6,75.6,100,100,98,30.02,29.92,2,0,7,0.00
2013-8-16,97.0,83.7,76.3,90.3,79.5,74.2,100,89,50,30.01,29.91,1,0,10,0.05
2013-8-17,98.2,82.2,75.7,90.8,79.0,71.1,100,92,42,30.03,29.92,2,0,11,0.04
2013-8-18,94.5,82.1,76.1,89.6,80.9,76.2,100,96,64,30.06,29.94,2,0,8,0.00
2013-8-19,93.7,80.2,73.0,89.4,79.2,73.1,100,97,66,30.05,29.89,3,0,11,0.48
2013-8-20,91.9,79.8,72.5,89.2,79.1,72.5,100,98,72,30.02,29.95,1,0,8,0.04
2013-8-21,92.8,81.7,76.5,90.4,81.1,76.5,100,98,75,30.04,29.93,2,0,11,0.02
2013-8-22,95.2,80.3,73.9,91.0,79.2,74.0,100,97,63,30.02,29.92,3,0,13,0.77
2013-8-23,94.5,79.9,73.9,91.2,79.1,74.0,100,98,67,29.98,29.90,2,0,10,0.00
2013-8-24,95.5,82.0,75.0,89.9,78.8,75.1,100,91,54,30.10,29.94,3,0,13,0.13
2013-8-25,90.7,79.4,75.0,89.9,79.1,75.1,100,99,79,30.10,29.98,1,0,6,0.11
2013-8-26,92.7,79.3,73.8,89.5,78.7,73.8,100,98,69,30.08,29.95,1,0,8,0.04
2013-8-27,90.5,77.3,72.1,87.9,76.9,72.2,100,99,78,30.02,29.93,3,0,6,0.12
2013-8-28,90.1,75.6,72.9,86.6,75.3,72.9,100,99,61,30.00,29.93,2,0,5,0.02
2013-8-29,93.4,84.2,73.0,87.2,76.7,73.1,100,81,55,30.00,29.90,1,0,4,0.00
2013-8-30,93.2,93.2,93.2,74.7,74.7,74.7,55,55,55,29.90,29.90,0,0,3,0.00
2013-8-31,93.2,93.2,93.2,74.7,74.7,74.7,55,55,55,29.90,29.90,0,0,3,0.00
2013-9-1,93.2,93.2,93.2,74.7,74.7,74.7,55,55,55,29.90,29.90,0,0,3,0.00
2013-9-2,93.2,84.8,73.8,89.6,77.0,73.8,100,81,55,30.00,29.90,3,0,11,1.00
2013-9-3,90.5,80.0,72.1,90.4,79.4,72.2,100,98,71,29.99,29.89,2,0,8,0.00
2013-9-4,92.5,78.5,74.5,90.1,78.2,74.5,100,99,72,30.03,29.92,1,0,8,0.12
2013-9-5,95.0,82.0,73.9,90.8,79.8,74.0,100,94,58,30.05,29.93,1,0,8,0.01
2013-9-6,96.3,83.1,74.3,90.5,79.7,74.4,100,91,53,30.01,29.86,4,0,15,0.01
2013-9-7,90.3,78.4,73.0,89.2,78.1,73.1,100,99,84,29.96,29.86,4,0,14,0.52
2013-9-8,92.8,79.6,71.8,87.7,77.3,71.8,100,94,55,29.92,29.81,2,0,7,0.01
2013-9-9,93.2,81.5,73.6,88.0,78.6,72.8,100,92,53,29.97,29.86,2,0,6,0.00
2013-9-10,91.9,80.6,73.8,88.0,79.2,73.8,100,96,60,30.01,29.93,2,0,9,0.00
2013-9-11,89.6,79.9,73.9,88.3,79.1,74.0,100,98,75,30.00,29.93,2,0,8,0.00
2013-9-12,75.2,74.2,72.0,75.3,74.3,72.0,100,100,100,30.00,29.93,0,0,1,0.00
2013-9-13,89.2,79.3,71.8,88.6,78.9,71.8,100,99,86,30.03,29.94,2,0,5,0.04
2013-9-14,88.9,79.1,73.2,87.8,78.9,73.2,100,99,82,30.01,29.93,2,0,6,0.06
2013-9-15,92.5,83.1,75.0,88.7,79.8,75.0,100,91,63,29.99,29.89,2,0,6,0.00
2013-9-16,85.3,75.1,73.2,85.3,75.2,73.3,100,100,100,29.98,29.85,2,0,7,11.50
2013-9-17,74.7,73.5,73.4,74.7,73.6,73.5,100,100,100,29.90,29.85,0,0,2,0.00
2013-9-18,89.8,76.4,73.4,88.7,76.4,73.5,100,100,90,29.91,29.83,3,0,12,0.00
2013-9-19,88.9,78.8,71.8,88.4,78.9,71.8,100,100,91,29.91,29.83,2,0,6,0.00
2013-9-20,89.8,79.6,72.3,83.9,76.1,71.9,100,90,58,29.91,29.78,2,0,8,0.00
2013-9-21,92.1,79.0,69.4,85.2,75.1,69.3,100,90,48,29.83,29.66,2,0,6,0.00
2013-9-22,91.6,78.1,72.3,87.6,77.1,72.4,100,97,58,29.76,29.66,4,0,8,0.00
2013-9-23,82.6,77.5,75.2,82.7,77.5,75.3,100,100,100,29.88,29.73,3,0,8,0.00
2013-9-24,85.1,76.0,72.5,85.2,76.1,72.5,100,100,100,29.86,29.77,5,0,17,0.00
2013-9-25,80.8,75.4,71.8,80.9,75.4,71.8,100,100,100,29.83,29.69,3,0,12,0.00
2013-9-26,90.9,82.5,73.4,90.7,81.3,73.5,100,96,64,29.77,29.69,5,1,13,0.00
2013-9-27,87.4,78.3,-9.6,83.9,75.7,-29.0,100,93,36,29.83,29.73,13,1,13,0.00
2013-9-28,91.2,78.8,70.9,86.3,76.7,70.9,100,94,59,29.87,29.78,2,0,8,0.01
2013-9-29,91.4,79.0,70.2,83.9,73.7,64.0,100,87,47,29.87,29.76,1,0,6,0.00
2013-9-30,92.7,79.5,69.6,84.8,73.5,60.8,100,86,36,29.89,29.77,1,0,8,0.00
2013-10-1,91.8,80.0,70.9,86.5,76.1,69.3,100,89,48,29.93,29.83,2,0,5,0.01
2013-10-2,89.6,79.4,72.5,85.8,77.2,72.5,100,94,64,29.93,29.83,2,0,8,0.00
2013-10-3,91.0,78.1,73.0,88.3,77.8,73.1,100,99,76,29.94,29.84,1,0,7,0.04
2013-10-4,90.9,79.3,72.5,86.1,76.7,70.9,100,93,56,29.96,29.86,1,0,8,0.00
2013-10-5,92.3,79.4,70.3,84.1,74.9,66.3,100,89,45,29.94,29.81,1,0,4,0.00
2013-10-6,91.2,78.6,69.8,86.1,75.0,69.8,100,90,54,29.87,29.75,2,0,7,0.01
2013-10-7,87.4,78.4,72.0,87.5,78.4,72.0,100,100,90,29.78,29.69,5,1,16,0.14
2013-10-8,88.0,78.1,71.8,83.4,75.2,71.8,100,92,60,29.83,29.72,4,1,10,0.00
2013-10-9,87.6,78.1,72.9,83.6,77.0,72.9,100,97,73,29.91,29.80,2,1,10,0.00
2013-10-10,90.1,77.0,68.2,83.1,73.1,68.2,100,90,50,29.93,29.83,3,0,9,0.00
2013-10-11,90.3,75.4,64.0,81.2,67.2,56.8,100,81,36,29.93,29.82,1,0,6,0.00
2013-10-12,89.2,75.6,65.5,81.4,70.5,63.7,100,87,44,29.93,29.85,2,0,7,0.00
2013-10-13,88.7,76.8,67.5,81.6,69.7,52.3,100,83,36,29.95,29.85,2,0,8,0.00
2013-10-14,88.9,76.5,66.6,79.6,69.2,57.6,100,83,36,29.93,29.80,3,0,11,0.00
2013-10-15,89.2,76.5,68.2,81.0,69.4,57.6,100,83,36,29.88,29.76,18,0,27,0.00
2013-10-16,89.8,76.1,67.6,83.4,72.6,64.9,100,91,45,29.86,29.77,3,0,7,0.00
2013-10-17,91.8,77.8,68.0,82.9,73.1,65.2,100,88,42,29.87,29.77,2,0,5,0.00
2013-10-18,93.9,79.6,69.4,83.7,74.6,63.8,100,87,37,29.88,29.77,8,0,97,0.00
2013-10-19,91.6,81.4,72.1,86.1,78.6,54.6,100,92,36,29.85,29.75,146,4,50,0.05
2013-10-20,91.4,82.1,73.0,86.3,77.0,73.1,100,87,61,29.85,29.76,146,11,6,0.00
2013-10-21,92.7,80.1,71.8,86.1,77.6,71.8,100,93,57,29.89,29.78,9,1,24,0.00
2013-10-22,91.2,80.0,72.0,87.2,77.3,72.0,100,93,54,29.86,29.72,4,1,11,0.04
2013-10-23,82.6,76.1,69.3,82.5,73.3,60.4,100,92,64,29.88,29.70,3,1,12,0.06
2013-10-24,76.3,62.5,12.9,70.4,55.3,3.1,100,78,64,30.03,29.87,97,14,8,0.00
2013-10-25,81.5,69.5,61.9,72.6,64.3,57.2,100,86,47,30.10,30.00,3,0,12,0.00
2013-10-26,85.3,69.9,59.5,72.8,61.8,49.0,100,81,36,30.08,29.95,3,0,9,0.02
2013-10-27,85.1,68.7,58.3,72.9,60.5,50.3,100,81,36,30.00,29.92,2,0,8,0.00
2013-10-28,87.4,71.6,59.9,75.4,64.4,55.7,100,83,36,30.06,29.96,2,0,8,0.00
2013-10-29,87.3,73.9,63.7,77.5,68.6,63.2,100,86,46,30.09,29.98,2,0,10,0.00
2013-10-30,87.8,74.4,65.7,79.5,66.6,55.4,100,82,36,30.09,29.95,2,0,8,0.00
2013-10-31,90.7,74.9,64.2,81.2,69.1,59.8,100,86,36,30.01,29.86,2,0,8,0.00
2013-11-1,89.1,75.4,65.7,82.8,70.8,61.0,100,89,40,29.91,29.77,4,1,10,0.00
2013-11-2,85.3,73.9,67.6,84.2,72.8,67.7,100,96,75,29.86,29.72,4,1,11,0.00
2013-11-3,81.9,70.4,62.2,69.5,56.7,41.7,100,68,36,29.96,29.83,4,1,15,0.00
2013-11-4,82.2,69.7,58.3,71.6,62.9,53.1,100,82,37,30.00,29.92,3,1,11,0.00
2013-11-5,84.6,74.8,66.4,80.5,72.7,66.4,100,94,64,29.98,29.91,3,1,9,0.00
2013-11-6,87.4,76.0,68.0,79.9,72.1,68.0,100,89,54,29.97,29.87,2,0,8,0.00
2013-11-7,85.6,73.4,65.1,81.6,70.9,65.1,100,93,62,29.93,29.83,3,0,9,0.00
2013-11-8,83.8,73.6,65.1,78.4,71.1,65.1,100,93,64,29.97,29.87,2,1,11,0.00
2013-11-9,81.9,73.7,67.8,80.9,73.6,67.9,100,100,90,30.02,29.93,3,1,9,0.00
2013-11-10,88.0,75.8,68.4,82.1,72.6,68.4,100,91,57,30.03,29.93,2,0,7,0.00
2013-11-11,88.0,75.4,67.1,79.6,69.5,57.9,100,86,37,30.03,29.92,2,0,6,0.00
2013-11-12,84.9,74.3,66.2,80.5,70.3,65.7,100,89,53,29.99,29.87,2,0,8,0.00
2013-11-13,72.5,67.4,58.5,72.2,62.6,52.6,100,85,65,30.14,29.92,3,2,16,0.00
2013-11-14,78.4,66.0,55.2,66.7,57.9,46.9,100,80,36,30.15,30.03,3,1,9,0.00
2013-11-15,81.5,71.4,62.1,75.4,69.7,62.1,100,95,74,30.05,29.91,2,1,11,0.00
2013-11-16,79.0,72.7,69.3,79.0,72.6,69.3,100,100,89,29.98,29.91,2,0,8,0.13
2013-11-17,90.0,76.0,68.2,81.2,71.9,64.5,100,89,45,29.96,29.87,2,0,7,0.00
2013-11-18,69.3,68.0,68.0,69.3,68.0,68.0,100,100,100,29.92,29.91,0,0,0,0.00
2013-11-19,68.0,68.0,68.0,68.0,68.0,68.0,100,100,100,29.91,29.91,0,0,0,0.00
2013-11-20,68.0,68.0,68.0,68.0,68.0,68.0,100,100,100,29.91,29.91,0,0,0,0.00
2013-11-21,68.0,68.0,68.0,68.0,68.0,68.0,100,100,100,29.91,29.91,0,0,0,0.00
2013-11-22,68.0,68.0,68.0,68.0,68.0,68.0,100,100,100,29.91,29.91,0,0,0,0.00
2013-11-23,68.0,68.0,68.0,68.0,68.0,68.0,100,100,100,29.91,29.91,0,0,0,0.00
2013-11-24,68.0,68.0,68.0,68.0,68.0,68.0,100,100,100,29.91,29.91,0,0,0,0.00
2013-11-25,68.0,68.0,68.0,68.0,68.0,68.0,100,100,100,29.91,29.91,0,0,0,0.00
2013-11-26,77.2,68.8,68.0,77.2,68.8,68.0,100,100,100,30.01,29.91,2,0,4,0.00
2013-11-27,88.2,75.4,67.3,81.3,72.3,67.3,100,91,58,30.03,29.93,2,0,4,0.00
2013-11-28,88.0,75.1,66.4,79.3,69.1,58.6,100,85,37,30.02,29.92,2,0,5,0.00
2013-11-29,84.9,75.1,66.4,79.0,70.7,61.1,100,88,55,29.99,29.87,2,0,5,0.00
2013-11-30,72.0,63.9,56.5,65.0,59.5,52.6,100,86,66,30.14,30.01,4,1,8,0.00
2013-12-1,77.9,67.7,55.4,66.7,59.8,47.8,100,80,36,30.14,29.97,4,1,8,0.00
2013-12-2,81.1,73.7,63.0,75.3,72.0,63.0,100,95,74,30.03,29.91,2,1,7,0.12
2013-12-3,78.8,72.3,68.2,78.8,72.2,68.2,100,100,89,29.98,29.90,2,0,4,0.01
2013-12-4,89.6,71.9,64.8,81.1,69.5,64.8,100,94,45,29.98,29.87,2,0,4,0.82
2013-12-5,85.1,71.2,60.8,80.9,67.5,60.8,100,90,50,30.05,29.95,2,0,24,0.00
2013-12-6,66.0,63.6,63.3,66.0,63.6,63.3,100,100,100,30.01,29.98,0,0,0,0.00
2013-12-7,63.3,63.3,63.3,63.3,63.3,63.3,100,100,100,29.99,29.99,0,0,0,0.00
2013-12-8,63.3,63.3,63.3,63.3,63.3,63.3,100,100,100,29.99,29.99,0,0,0,0.00
2013-12-9,63.3,63.3,63.3,63.3,63.3,63.3,100,100,100,29.99,29.99,0,0,0,0.00
2013-12-10,63.3,63.3,63.3,63.3,63.3,63.3,100,100,100,29.99,29.99,0,0,0,0.00
2013-12-14,75.2,69.8,-11.7,75.0,69.6,-12.2,99,99,97,29.89,29.87,74,3,1,0.00
2013-12-15,79.7,73.8,67.1,79.5,72.9,15.2,99,97,10,29.99,29.81,3,1,97,0.07
2013-12-16,71.1,62.9,53.4,65.8,54.5,29.2,99,80,23,30.09,29.97,4,1,9,0.00
2013-12-17,79.5,60.9,48.7,62.6,51.5,22.4,99,81,12,30.12,30.00,3,0,6,0.00
2013-12-18,75.7,55.7,46.9,56.7,41.1,7.2,99,74,10,30.18,30.08,3,0,4,0.00
2013-12-19,80.2,61.9,46.2,61.6,45.6,15.2,99,70,10,30.15,30.03,2,0,6,0.00
2013-12-20,84.2,70.5,-12.8,74.6,62.8,-15.6,99,80,35,30.08,29.75,31,1,31,0.00
2013-12-21,87.6,76.5,72.9,87.3,76.2,72.6,99,99,99,29.87,29.75,1,0,4,0.20
2013-12-22,89.6,77.7,72.1,85.4,76.3,71.8,99,96,66,29.91,29.82,2,0,6,0.21
2013-12-23,89.2,79.3,71.8,85.4,76.8,71.5,99,93,65,29.92,29.83,2,0,5,0.04
2013-12-24,88.9,79.1,73.2,84.8,77.7,72.9,99,96,61,29.90,29.83,2,0,6,0.06
2013-12-25,149.7,84.3,75.0,99.9,75.9,62.0,99,81,39,29.88,29.22,11,0,52,0.00
2013-12-26,85.3,73.5,62.8,99.9,66.3,-99.9,99,81,1,29.96,29.83,47,1,47,0.00
2013-12-27,81.5,71.6,63.3,75.1,67.4,59.8,99,88,48,29.99,29.86,3,1,102,0.00
2013-12-28,83.7,73.2,66.2,77.8,70.4,65.0,99,92,56,29.96,29.80,3,0,11,0.00
2013-12-29,85.3,74.5,0.0,99.9,74.0,-99.9,99,98,5,30.00,29.71,47,2,47,0.01
2013-12-30,72.7,67.2,63.0,69.7,66.0,62.7,99,96,79,30.09,29.92,3,1,11,0.00
2013-12-31,75.2,66.8,61.7,62.9,49.1,11.0,99,66,10,30.19,30.05,2,1,13,0.21
2014-1-1,82.9,70.7,61.3,77.8,67.7,60.4,99,91,59,30.13,29.95,2,0,8,0.24
2014-1-2,83.1,73.0,65.1,79.1,69.9,62.7,99,91,51,29.95,29.79,6,1,16,0.06